Time;durP1;ratioP1;P1;durP2;ratioP2;P2;SDS_P1;SDS_P2;PMS_P1;PMS_P2;Temp;Humidity;BMP_temperature;BMP_pressure;BME280_temperature;BME280_humidity;BME280_pressure;Samples;Min_cycle;Max_cycle;Signal;HPM_P1;HPM_P2
2022/02/10 00:19:26;;;;;;;9.38;4.35;;;;;;;;;;5118801;28;20019;-73
2022/02/10 00:35:21;;;;;;;10.85;4.90;;;;;;;;;;5115329;28;20031;-73
2022/02/10 00:38:05;;;;;;;11.77;5.10;;;;;;;;;;5115352;28;20043;-73
2022/02/10 00:40:35;;;;;;;11.05;4.47;;;;;;;;;;5115408;28;20023;-73
2022/02/10 00:43:02;;;;;;;10.05;4.50;;;;;;;;;;5114968;28;20032;-73
2022/02/10 00:45:30;;;;;;;9.65;4.43;;;;;;;;;;5115159;28;20023;-74
2022/02/10 00:48:00;;;;;;;8.63;4.30;;;;;;;;;;5115033;28;20107;-73
2022/02/10 00:50:28;;;;;;;10.90;4.90;;;;;;;;;;5114837;28;20031;-73
2022/02/10 00:53:02;;;;;;;8.50;4.20;;;;;;;;;;5096691;28;20031;-73
2022/02/10 00:55:31;;;;;;;10.73;4.55;;;;;;;;;;5115179;28;20509;-73
2022/02/10 00:57:58;;;;;;;11.00;4.45;;;;;;;;;;5114752;28;20095;-73
2022/02/10 01:29:46;;;;;;;10.80;4.32;;;;;;;;;;5114269;28;20113;-73
2022/02/10 01:32:13;;;;;;;8.43;4.15;;;;;;;;;;5113671;28;20047;-73
2022/02/10 01:34:51;;;;;;;8.18;4.15;;;;;;;;;;5112958;28;20085;-73
2022/02/10 01:37:18;;;;;;;12.20;4.30;;;;;;;;;;5114096;28;20525;-73
2022/02/10 01:39:50;;;;;;;9.80;4.00;;;;;;;;;;5113986;28;20031;-73
2022/02/10 02:03:47;;;;;;;6.95;3.58;;;;;;;;;;5113572;28;20082;-75
2022/02/10 02:06:25;;;;;;;7.15;3.80;;;;;;;;;;5113648;28;20107;-75
2022/02/10 02:08:52;;;;;;;8.88;3.88;;;;;;;;;;5094981;28;20034;-75
2022/02/10 02:11:18;;;;;;;7.82;3.83;;;;;;;;;;5113056;28;20103;-75
2022/02/10 02:13:44;;;;;;;7.53;3.38;;;;;;;;;;5113274;28;20402;-75
2022/02/10 02:16:10;;;;;;;10.15;3.80;;;;;;;;;;5113444;28;20066;-75
2022/02/10 02:18:36;;;;;;;9.98;4.13;;;;;;;;;;5113427;28;20016;-76
2022/02/10 02:21:02;;;;;;;8.00;3.72;;;;;;;;;;5113172;28;20031;-76
2022/02/10 02:23:29;;;;;;;7.63;3.78;;;;;;;;;;5112691;28;20028;-75
2022/02/10 02:26:03;;;;;;;8.07;3.65;;;;;;;;;;5113366;28;20034;-75
2022/02/10 02:28:33;;;;;;;9.90;3.83;;;;;;;;;;5113465;28;20020;-77
2022/02/10 02:31:04;;;;;;;8.68;4.35;;;;;;;;;;5113310;28;20133;-75
2022/02/10 03:06:48;;;;;;;8.80;3.67;;;;;;;;;;5112965;28;20093;-75
2022/02/10 03:08:52;;;;;;;7.82;3.33;;;;;;;;;;5081110;28;20044;-75
2022/02/10 03:11:18;;;;;;;6.60;3.35;;;;;;;;;;5092326;28;20020;-75
2022/02/10 03:14:34;;;;;;;9.27;3.30;;;;;;;;;;5092064;28;20448;-75
2022/02/10 03:22:13;;;;;;;7.55;3.30;;;;;;;;;;5112237;28;20035;-75
2022/02/10 04:00:54;;;;;;;7.45;3.20;;;;;;;;;;5116208;28;20035;-75
2022/02/10 04:03:46;;;;;;;8.50;3.42;;;;;;;;;;5115441;28;20043;-75
2022/02/10 04:09:35;;;;;;;6.20;3.00;;;;;;;;;;5115650;28;20027;-75
2022/02/10 04:12:22;;;;;;;10.07;3.72;;;;;;;;;;5115064;28;20027;-75
2022/02/10 04:14:52;;;;;;;11.65;4.05;;;;;;;;;;5115108;28;20024;-75
2022/02/10 04:22:53;;;;;;;12.45;3.95;;;;;;;;;;5115334;28;20027;-75
2022/02/10 04:30:56;;;;;;;8.80;3.20;;;;;;;;;;5115903;28;20032;-75
2022/02/10 04:57:37;;;;;;;9.65;3.53;;;;;;;;;;5115166;28;20028;-75
2022/02/10 05:21:42;;;;;;;9.73;3.80;;;;;;;;;;5114230;28;20085;-75
2022/02/10 05:24:24;;;;;;;7.88;3.05;;;;;;;;;;5095780;28;20098;-75
2022/02/10 05:35:30;;;;;;;7.82;3.40;;;;;;;;;;5082861;28;20031;-75
2022/02/10 05:38:10;;;;;;;9.10;3.50;;;;;;;;;;5095921;28;20016;-77
2022/02/10 06:01:51;;;;;;;8.90;3.65;;;;;;;;;;5113512;28;20111;-74
2022/02/10 07:03:48;;;;;;;10.20;3.60;;;;;;;;;;5112488;28;20054;-74
2022/02/10 07:09:27;;;;;;;5.85;2.75;;;;;;;;;;5112646;28;20035;-74
2022/02/10 07:52:33;;;;;;;10.30;3.00;;;;;;;;;;5115647;28;20392;-75
2022/02/10 07:58:13;;;;;;;5.93;2.85;;;;;;;;;;5115114;28;20031;-75
2022/02/10 08:55:00;;;;;;;10.38;3.97;;;;;;;;;;5115985;27;20024;-74
2022/02/10 09:08:18;;;;;;;11.25;3.80;;;;;;;;;;5077240;28;20028;-73
2022/02/10 10:00:40;;;;;;;8.65;3.75;;;;;;;;;;5079027;28;20689;-75
2022/02/10 10:03:13;;;;;;;12.70;3.88;;;;;;;;;;5086883;28;20056;-76
2022/02/10 10:05:52;;;;;;;9.55;3.78;;;;;;;;;;5104761;27;20077;-75
2022/02/10 10:09:21;;;;;;;9.00;3.72;;;;;;;;;;5103337;27;20514;-75
2022/02/10 10:20:24;;;;;;;11.57;3.70;;;;;;;;;;5106970;27;20124;-75
2022/02/10 10:23:00;;;;;;;8.75;3.60;;;;;;;;;;5109219;27;20062;-75
2022/02/10 10:51:10;;;;;;;7.97;3.33;;;;;;;;;;5104589;27;20039;-75
2022/02/10 10:56:21;;;;;;;8.60;3.60;;;;;;;;;;5109301;27;20600;-74
2022/02/10 11:38:07;;;;;;;8.38;4.10;;;;;;;;;;5128735;28;20102;-76
2022/02/10 11:43:43;;;;;;;11.98;4.43;;;;;;;;;;5116878;28;20039;-77
2022/02/10 14:13:56;;;;;;;8.27;4.00;;;;;;;;;;5123390;27;20027;-76
2022/02/10 14:16:28;;;;;;;11.15;4.95;;;;;;;;;;5106673;27;20047;-76
2022/02/10 14:19:01;;;;;;;8.40;4.55;;;;;;;;;;5109443;27;20096;-76
2022/02/10 14:21:33;;;;;;;8.85;4.50;;;;;;;;;;5106370;27;20750;-76
2022/02/10 14:26:41;;;;;;;7.80;4.32;;;;;;;;;;5114646;27;20063;-76
2022/02/10 14:29:08;;;;;;;11.43;5.40;;;;;;;;;;5093478;27;20035;-77
2022/02/10 14:31:34;;;;;;;7.38;4.60;;;;;;;;;;5105055;27;20026;-77
2022/02/10 14:34:01;;;;;;;9.70;4.47;;;;;;;;;;5105884;27;20090;-76
2022/02/10 14:36:38;;;;;;;7.70;4.40;;;;;;;;;;5115195;27;20034;-77
2022/02/10 16:16:17;;;;;;;7.38;3.60;;;;;;;;;;5127278;27;20595;-75
2022/02/10 16:18:12;;;;;;;5.93;3.05;;;;;;;;;;5120280;27;20051;-75
2022/02/10 16:20:38;;;;;;;9.00;3.45;;;;;;;;;;5126989;27;20481;-75
2022/02/10 16:23:07;;;;;;;6.85;3.03;;;;;;;;;;5117078;27;20019;-75
2022/02/10 16:25:46;;;;;;;5.65;3.50;;;;;;;;;;5106452;27;20046;-75
2022/02/10 16:28:24;;;;;;;7.35;2.78;;;;;;;;;;5099099;27;20031;-75
2022/02/10 16:30:51;;;;;;;5.72;3.30;;;;;;;;;;5131273;27;20020;-76
2022/02/10 16:33:17;;;;;;;6.95;3.70;;;;;;;;;;5130068;27;20019;-75
2022/02/10 16:35:43;;;;;;;10.38;3.75;;;;;;;;;;5125045;27;20015;-75
2022/02/10 16:38:10;;;;;;;6.15;3.20;;;;;;;;;;5131330;27;20125;-75
2022/02/10 16:40:41;;;;;;;6.53;3.33;;;;;;;;;;5121456;27;20015;-76
2022/02/10 16:43:07;;;;;;;6.05;3.05;;;;;;;;;;5120466;27;20031;-75
2022/02/10 16:45:33;;;;;;;7.45;3.67;;;;;;;;;;5124413;27;20027;-75
2022/02/10 16:48:00;;;;;;;7.35;3.88;;;;;;;;;;5133354;27;20493;-74
2022/02/10 16:50:26;;;;;;;7.90;3.38;;;;;;;;;;5123702;27;20035;-75
2022/02/10 16:53:13;;;;;;;7.00;4.05;;;;;;;;;;5133006;27;20016;-75
2022/02/10 17:25:38;;;;;;;6.10;3.45;;;;;;;;;;5120555;27;20398;-74
2022/02/10 17:28:07;;;;;;;8.40;3.67;;;;;;;;;;5120106;27;20027;-75
2022/02/10 17:33:27;;;;;;;8.50;4.05;;;;;;;;;;5077676;27;20027;-74
2022/02/10 17:46:27;;;;;;;10.25;3.97;;;;;;;;;;5120945;27;20559;-74
2022/02/10 17:51:56;;;;;;;11.23;4.60;;;;;;;;;;5132160;27;20512;-74
2022/02/10 17:54:24;;;;;;;8.90;3.95;;;;;;;;;;5113590;27;20038;-75
2022/02/10 17:56:50;;;;;;;9.00;4.32;;;;;;;;;;5132195;27;20481;-75
2022/02/10 17:59:17;;;;;;;10.63;4.25;;;;;;;;;;5130238;27;20521;-75
2022/02/10 18:01:44;;;;;;;11.50;4.85;;;;;;;;;;5116613;27;20023;-75
2022/02/10 18:04:11;;;;;;;9.60;5.65;;;;;;;;;;5130263;27;20551;-75
2022/02/10 18:06:43;;;;;;;10.88;4.88;;;;;;;;;;5120130;27;20023;-75
2022/02/10 18:15:07;;;;;;;15.80;7.68;;;;;;;;;;5129957;27;20050;-75
2022/02/10 18:19:53;;;;;;;15.48;8.75;;;;;;;;;;5131160;27;20035;-75
2022/02/10 18:27:59;;;;;;;12.13;6.97;;;;;;;;;;5112889;28;20039;-75
2022/02/10 18:30:38;;;;;;;13.13;7.72;;;;;;;;;;5112864;28;20035;-75
2022/02/10 19:08:24;;;;;;;11.32;7.68;;;;;;;;;;5120280;27;20032;-74
2022/02/10 19:10:56;;;;;;;16.25;7.72;;;;;;;;;;5112285;28;20027;-74
2022/02/10 19:13:24;;;;;;;12.70;7.80;;;;;;;;;;5112299;28;20018;-74
2022/02/10 19:15:53;;;;;;;15.27;7.90;;;;;;;;;;5093937;28;20505;-74
2022/02/10 19:18:19;;;;;;;12.70;7.90;;;;;;;;;;5112751;28;20394;-74
2022/02/10 19:20:45;;;;;;;13.93;7.68;;;;;;;;;;5121764;28;20547;-75
2022/02/10 19:23:11;;;;;;;12.40;6.88;;;;;;;;;;5093848;28;20047;-74
2022/02/10 19:25:39;;;;;;;13.70;7.97;;;;;;;;;;5093679;28;20031;-74
2022/02/10 19:28:11;;;;;;;13.15;7.88;;;;;;;;;;5114774;28;20019;-74
2022/02/10 19:30:40;;;;;;;12.48;7.32;;;;;;;;;;5097791;28;20027;-74
2022/02/10 19:33:14;;;;;;;12.07;7.85;;;;;;;;;;5116319;28;20020;-74
2022/02/10 19:35:45;;;;;;;15.02;7.72;;;;;;;;;;5115984;28;20027;-74
2022/02/10 19:38:16;;;;;;;12.98;7.90;;;;;;;;;;5116267;28;20478;-74
2022/02/10 19:40:42;;;;;;;14.50;7.90;;;;;;;;;;5097872;28;20543;-74
2022/02/10 19:43:10;;;;;;;14.63;7.07;;;;;;;;;;5097753;28;20035;-75
2022/02/10 19:45:36;;;;;;;13.45;7.60;;;;;;;;;;5097694;28;20027;-75
2022/02/10 19:48:03;;;;;;;10.65;7.20;;;;;;;;;;5116174;28;20027;-75
2022/02/10 19:50:30;;;;;;;14.48;7.47;;;;;;;;;;5115994;28;20031;-75
2022/02/10 19:53:00;;;;;;;12.88;7.00;;;;;;;;;;5132875;27;20047;-75
2022/02/10 19:55:28;;;;;;;13.30;7.55;;;;;;;;;;5117926;27;20030;-75
2022/02/10 19:57:57;;;;;;;13.95;7.40;;;;;;;;;;5136120;27;20102;-75
2022/02/10 20:00:30;;;;;;;11.65;7.22;;;;;;;;;;5128363;27;20032;-75
2022/02/10 20:02:57;;;;;;;12.80;7.70;;;;;;;;;;5115821;28;20394;-75
2022/02/10 20:05:25;;;;;;;12.43;7.03;;;;;;;;;;5115405;28;20046;-74
2022/02/10 20:07:54;;;;;;;11.43;7.03;;;;;;;;;;5115707;28;20039;-74
2022/02/10 20:10:21;;;;;;;13.02;7.55;;;;;;;;;;5115521;28;20460;-75
2022/02/10 20:12:47;;;;;;;13.13;6.70;;;;;;;;;;5116178;28;20539;-75
2022/02/10 20:15:14;;;;;;;12.65;7.32;;;;;;;;;;5115393;28;20489;-75
2022/02/10 20:17:40;;;;;;;11.40;6.97;;;;;;;;;;5115631;28;20019;-75
2022/02/10 20:20:07;;;;;;;12.57;7.07;;;;;;;;;;5115588;28;20500;-74
2022/02/10 20:22:37;;;;;;;11.20;6.80;;;;;;;;;;5115547;28;20398;-74
2022/02/10 20:25:04;;;;;;;13.77;7.30;;;;;;;;;;5131278;27;20031;-74
2022/02/10 20:27:30;;;;;;;13.48;7.35;;;;;;;;;;5135894;27;20378;-74
2022/02/10 20:29:56;;;;;;;11.50;6.80;;;;;;;;;;5136029;27;20271;-74
2022/02/10 20:32:22;;;;;;;12.93;7.28;;;;;;;;;;5135527;27;20286;-74
2022/02/10 20:34:49;;;;;;;11.30;6.72;;;;;;;;;;5135781;27;20019;-74
2022/02/10 20:37:15;;;;;;;11.32;6.88;;;;;;;;;;5135930;27;20019;-74
2022/02/10 20:39:41;;;;;;;12.32;7.38;;;;;;;;;;5135307;27;20471;-74
2022/02/10 20:42:14;;;;;;;14.05;7.13;;;;;;;;;;5126593;27;20368;-74
2022/02/10 20:44:43;;;;;;;12.45;6.90;;;;;;;;;;5115206;28;20133;-74
2022/02/10 20:47:09;;;;;;;12.55;7.05;;;;;;;;;;5115072;28;20102;-74
2022/02/10 20:49:35;;;;;;;13.85;7.32;;;;;;;;;;5115180;28;20096;-74
2022/02/10 20:52:01;;;;;;;13.15;7.20;;;;;;;;;;5114538;28;20015;-74
2022/02/10 20:54:27;;;;;;;14.57;7.53;;;;;;;;;;5114823;28;20051;-74
2022/02/10 20:56:54;;;;;;;12.95;7.15;;;;;;;;;;5127355;27;20019;-75
2022/02/10 21:01:50;;;;;;;11.60;7.35;;;;;;;;;;5134929;27;20054;-74
2022/02/10 21:04:16;;;;;;;12.80;7.60;;;;;;;;;;5135228;27;20054;-74
2022/02/10 21:07:12;;;;;;;13.60;7.68;;;;;;;;;;5134961;27;20031;-74
2022/02/10 21:09:38;;;;;;;13.48;6.78;;;;;;;;;;5093614;28;20031;-74
2022/02/10 21:12:07;;;;;;;12.38;6.82;;;;;;;;;;5093402;28;20020;-75
2022/02/10 21:14:33;;;;;;;11.60;6.22;;;;;;;;;;5076053;28;20034;-75
2022/02/10 21:17:06;;;;;;;9.35;6.38;;;;;;;;;;5093756;28;20020;-75
2022/02/10 21:19:33;;;;;;;12.40;6.90;;;;;;;;;;5094392;28;20032;-75
2022/02/10 21:22:05;;;;;;;13.60;6.45;;;;;;;;;;5110349;28;20023;-75
2022/02/10 21:24:32;;;;;;;13.77;7.32;;;;;;;;;;5095971;28;20027;-75
2022/02/10 21:29:29;;;;;;;11.05;6.53;;;;;;;;;;5130168;27;20038;-75
2022/02/10 21:31:57;;;;;;;9.98;6.55;;;;;;;;;;5134233;27;20401;-74
2022/02/10 21:34:27;;;;;;;9.40;6.20;;;;;;;;;;5134727;27;20033;-74
2022/02/10 21:37:03;;;;;;;9.27;5.72;;;;;;;;;;5134372;27;20050;-74
2022/02/10 21:39:47;;;;;;;10.25;6.07;;;;;;;;;;5134848;27;20102;-75
2022/02/10 21:46:05;;;;;;;12.10;6.15;;;;;;;;;;5114296;28;20066;-75
2022/02/10 22:19:13;;;;;;;7.47;4.65;;;;;;;;;;5093033;28;20039;-76
2022/02/10 22:21:52;;;;;;;9.70;5.13;;;;;;;;;;5092255;28;20050;-75
2022/02/10 22:24:19;;;;;;;7.95;4.75;;;;;;;;;;5092807;28;20063;-74
2022/02/10 22:26:46;;;;;;;8.10;4.90;;;;;;;;;;5092466;28;20028;-74
2022/02/10 22:29:22;;;;;;;9.18;5.03;;;;;;;;;;5092706;28;20055;-74
2022/02/10 22:36:55;;;;;;;7.60;4.20;;;;;;;;;;5113041;28;20114;-75
2022/02/10 22:39:21;;;;;;;8.82;5.00;;;;;;;;;;5094734;28;20024;-75
2022/02/10 22:41:47;;;;;;;6.70;4.22;;;;;;;;;;5106490;28;20483;-75
2022/02/10 22:44:14;;;;;;;10.05;5.25;;;;;;;;;;5092387;28;20043;-75
2022/02/10 22:46:40;;;;;;;8.80;4.68;;;;;;;;;;5098661;28;20096;-75
2022/02/10 22:49:06;;;;;;;9.32;4.90;;;;;;;;;;5111405;28;20024;-75
2022/02/10 22:51:33;;;;;;;9.40;4.80;;;;;;;;;;5112034;28;20020;-75
2022/02/10 22:53:59;;;;;;;6.82;4.28;;;;;;;;;;5112760;28;20035;-75
2022/02/10 22:56:28;;;;;;;8.45;5.22;;;;;;;;;;5112615;28;20047;-75
2022/02/10 22:58:56;;;;;;;8.45;4.85;;;;;;;;;;5112467;28;20498;-75
2022/02/10 23:01:22;;;;;;;7.57;4.03;;;;;;;;;;5093868;28;20024;-75
2022/02/10 23:03:48;;;;;;;7.50;4.30;;;;;;;;;;5121287;27;20043;-75
2022/02/10 23:06:15;;;;;;;6.40;4.32;;;;;;;;;;5133063;27;20027;-75
2022/02/10 23:08:41;;;;;;;7.88;4.40;;;;;;;;;;5116362;28;20043;-75
2022/02/10 23:11:10;;;;;;;8.07;4.28;;;;;;;;;;5112198;28;20047;-75
2022/02/10 23:13:36;;;;;;;7.18;4.10;;;;;;;;;;5111921;28;20024;-75
2022/02/10 23:16:04;;;;;;;7.00;4.10;;;;;;;;;;5112402;28;20027;-75
2022/02/10 23:18:31;;;;;;;9.32;4.82;;;;;;;;;;5112222;28;20035;-75
2022/02/10 23:20:59;;;;;;;7.35;4.13;;;;;;;;;;5112505;28;20020;-74
2022/02/10 23:23:26;;;;;;;7.70;4.22;;;;;;;;;;5111814;28;20023;-75
2022/02/10 23:25:53;;;;;;;7.45;3.85;;;;;;;;;;5112449;28;20020;-75
2022/02/10 23:28:33;;;;;;;10.00;4.43;;;;;;;;;;5111973;28;20027;-75
2022/02/10 23:31:00;;;;;;;6.38;4.07;;;;;;;;;;5094000;28;20549;-75
2022/02/10 23:33:29;;;;;;;7.30;4.10;;;;;;;;;;5112084;28;20497;-75
2022/02/10 23:44:09;;;;;;;10.43;4.90;;;;;;;;;;5112541;28;20039;-75
2022/02/10 23:46:35;;;;;;;7.28;4.07;;;;;;;;;;5112539;28;20104;-75
2022/02/10 23:49:01;;;;;;;7.70;4.70;;;;;;;;;;5111829;28;20047;-76
2022/02/10 23:51:32;;;;;;;6.82;4.43;;;;;;;;;;5111597;28;20023;-75
2022/02/10 23:53:59;;;;;;;7.82;3.80;;;;;;;;;;5126593;28;20023;-75
2022/02/10 23:56:32;;;;;;;7.13;4.25;;;;;;;;;;5132854;28;20095;-75
2022/02/10 23:59:07;;;;;;;8.07;4.47;;;;;;;;;;5113748;28;20027;-74
